sensor_id;sensor_type;location;lat;lon;timestamp;P1;durP1;ratioP1;P2;durP2;ratioP2
15114;SDS011;7658;51.456;7.622;2023-04-25T00:01:48;20.07;;;8.97;;
15114;SDS011;7658;51.456;7.622;2023-04-25T00:04:14;18.17;;;9.90;;
15114;SDS011;7658;51.456;7.622;2023-04-25T00:06:40;16.37;;;9.60;;
15114;SDS011;7658;51.456;7.622;2023-04-25T00:09:06;18.30;;;10.67;;
15114;SDS011;7658;51.456;7.622;2023-04-25T00:11:34;18.03;;;9.77;;
15114;SDS011;7658;51.456;7.622;2023-04-25T00:14:00;18.93;;;10.30;;
15114;SDS011;7658;51.456;7.622;2023-04-25T00:16:27;23.57;;;11.07;;
15114;SDS011;7658;51.456;7.622;2023-04-25T00:18:54;14.53;;;9.23;;
15114;SDS011;7658;51.456;7.622;2023-04-25T00:21:20;20.80;;;10.97;;
15114;SDS011;7658;51.456;7.622;2023-04-25T00:23:47;16.43;;;8.77;;
15114;SDS011;7658;51.456;7.622;2023-04-25T00:26:12;18.10;;;9.47;;
15114;SDS011;7658;51.456;7.622;2023-04-25T00:28:39;21.90;;;10.83;;
15114;SDS011;7658;51.456;7.622;2023-04-25T00:31:05;17.17;;;9.73;;
15114;SDS011;7658;51.456;7.622;2023-04-25T00:33:31;24.13;;;10.80;;
15114;SDS011;7658;51.456;7.622;2023-04-25T00:35:56;18.23;;;10.70;;
15114;SDS011;7658;51.456;7.622;2023-04-25T00:38:22;22.10;;;10.93;;
15114;SDS011;7658;51.456;7.622;2023-04-25T00:40:48;18.83;;;10.87;;
15114;SDS011;7658;51.456;7.622;2023-04-25T00:43:14;17.77;;;11.00;;
15114;SDS011;7658;51.456;7.622;2023-04-25T00:45:40;21.90;;;11.30;;
15114;SDS011;7658;51.456;7.622;2023-04-25T00:48:06;21.17;;;11.10;;
15114;SDS011;7658;51.456;7.622;2023-04-25T00:50:35;19.07;;;11.43;;
15114;SDS011;7658;51.456;7.622;2023-04-25T00:53:02;19.60;;;10.83;;
15114;SDS011;7658;51.456;7.622;2023-04-25T00:55:28;23.23;;;11.87;;
15114;SDS011;7658;51.456;7.622;2023-04-25T00:57:56;18.03;;;11.07;;
15114;SDS011;7658;51.456;7.622;2023-04-25T01:00:22;21.77;;;11.17;;
15114;SDS011;7658;51.456;7.622;2023-04-25T01:02:48;22.40;;;12.07;;
15114;SDS011;7658;51.456;7.622;2023-04-25T01:05:14;19.43;;;11.67;;
15114;SDS011;7658;51.456;7.622;2023-04-25T01:07:40;16.90;;;11.60;;
15114;SDS011;7658;51.456;7.622;2023-04-25T01:10:06;20.97;;;11.67;;
15114;SDS011;7658;51.456;7.622;2023-04-25T01:12:32;27.50;;;13.23;;
15114;SDS011;7658;51.456;7.622;2023-04-25T01:14:58;21.60;;;12.40;;
15114;SDS011;7658;51.456;7.622;2023-04-25T01:17:24;24.03;;;12.33;;
15114;SDS011;7658;51.456;7.622;2023-04-25T01:19:50;22.67;;;14.33;;
15114;SDS011;7658;51.456;7.622;2023-04-25T01:22:16;20.17;;;12.60;;
15114;SDS011;7658;51.456;7.622;2023-04-25T01:24:42;22.53;;;14.17;;
15114;SDS011;7658;51.456;7.622;2023-04-25T01:27:09;21.23;;;13.77;;
15114;SDS011;7658;51.456;7.622;2023-04-25T01:29:35;19.97;;;13.17;;
15114;SDS011;7658;51.456;7.622;2023-04-25T01:32:01;22.10;;;13.40;;
15114;SDS011;7658;51.456;7.622;2023-04-25T01:34:28;22.80;;;12.60;;
15114;SDS011;7658;51.456;7.622;2023-04-25T01:36:54;16.90;;;12.57;;
15114;SDS011;7658;51.456;7.622;2023-04-25T01:39:20;26.77;;;13.27;;
15114;SDS011;7658;51.456;7.622;2023-04-25T01:41:47;26.10;;;14.50;;
15114;SDS011;7658;51.456;7.622;2023-04-25T01:44:13;21.40;;;12.93;;
15114;SDS011;7658;51.456;7.622;2023-04-25T01:46:40;18.57;;;13.27;;
15114;SDS011;7658;51.456;7.622;2023-04-25T01:49:06;25.20;;;13.73;;
15114;SDS011;7658;51.456;7.622;2023-04-25T01:51:32;24.57;;;12.60;;
15114;SDS011;7658;51.456;7.622;2023-04-25T01:53:58;21.87;;;14.43;;
15114;SDS011;7658;51.456;7.622;2023-04-25T01:56:24;27.87;;;15.00;;
15114;SDS011;7658;51.456;7.622;2023-04-25T01:58:49;33.60;;;15.27;;
15114;SDS011;7658;51.456;7.622;2023-04-25T02:01:16;20.77;;;14.30;;
15114;SDS011;7658;51.456;7.622;2023-04-25T02:03:42;22.50;;;14.03;;
15114;SDS011;7658;51.456;7.622;2023-04-25T02:06:08;26.97;;;15.13;;
15114;SDS011;7658;51.456;7.622;2023-04-25T02:08:34;26.90;;;15.33;;
15114;SDS011;7658;51.456;7.622;2023-04-25T02:11:02;24.83;;;15.80;;
15114;SDS011;7658;51.456;7.622;2023-04-25T02:13:28;24.40;;;15.10;;
15114;SDS011;7658;51.456;7.622;2023-04-25T02:15:54;28.90;;;17.67;;
15114;SDS011;7658;51.456;7.622;2023-04-25T02:18:19;25.63;;;16.17;;
15114;SDS011;7658;51.456;7.622;2023-04-25T02:20:46;30.07;;;16.60;;
15114;SDS011;7658;51.456;7.622;2023-04-25T02:23:12;32.10;;;18.47;;
15114;SDS011;7658;51.456;7.622;2023-04-25T02:25:40;32.70;;;18.10;;
15114;SDS011;7658;51.456;7.622;2023-04-25T02:28:06;36.57;;;19.43;;
15114;SDS011;7658;51.456;7.622;2023-04-25T02:30:32;35.47;;;18.60;;
15114;SDS011;7658;51.456;7.622;2023-04-25T02:32:57;37.17;;;20.23;;
15114;SDS011;7658;51.456;7.622;2023-04-25T02:35:23;35.03;;;19.20;;
15114;SDS011;7658;51.456;7.622;2023-04-25T02:37:49;34.60;;;18.63;;
15114;SDS011;7658;51.456;7.622;2023-04-25T02:40:15;31.23;;;18.37;;
15114;SDS011;7658;51.456;7.622;2023-04-25T02:42:41;38.67;;;19.17;;
15114;SDS011;7658;51.456;7.622;2023-04-25T02:45:07;28.67;;;18.83;;
15114;SDS011;7658;51.456;7.622;2023-04-25T02:47:33;33.20;;;18.43;;
15114;SDS011;7658;51.456;7.622;2023-04-25T02:49:58;30.70;;;18.87;;
15114;SDS011;7658;51.456;7.622;2023-04-25T02:52:24;35.83;;;19.40;;
15114;SDS011;7658;51.456;7.622;2023-04-25T02:54:50;35.67;;;19.57;;
15114;SDS011;7658;51.456;7.622;2023-04-25T02:57:16;37.47;;;20.83;;
15114;SDS011;7658;51.456;7.622;2023-04-25T02:59:41;36.67;;;20.60;;
15114;SDS011;7658;51.456;7.622;2023-04-25T03:02:07;38.60;;;20.27;;
15114;SDS011;7658;51.456;7.622;2023-04-25T03:04:33;34.37;;;19.50;;
15114;SDS011;7658;51.456;7.622;2023-04-25T03:06:59;35.50;;;20.70;;
15114;SDS011;7658;51.456;7.622;2023-04-25T03:09:24;35.37;;;21.03;;
15114;SDS011;7658;51.456;7.622;2023-04-25T03:11:50;40.23;;;20.63;;
15114;SDS011;7658;51.456;7.622;2023-04-25T03:14:16;43.00;;;21.87;;
15114;SDS011;7658;51.456;7.622;2023-04-25T03:16:42;41.50;;;21.40;;
15114;SDS011;7658;51.456;7.622;2023-04-25T03:19:07;42.67;;;22.37;;
15114;SDS011;7658;51.456;7.622;2023-04-25T03:21:34;40.47;;;22.77;;
15114;SDS011;7658;51.456;7.622;2023-04-25T03:24:01;40.00;;;21.90;;
15114;SDS011;7658;51.456;7.622;2023-04-25T03:26:28;42.97;;;23.10;;
15114;SDS011;7658;51.456;7.622;2023-04-25T03:28:53;34.17;;;21.00;;
15114;SDS011;7658;51.456;7.622;2023-04-25T03:31:19;38.07;;;22.63;;
15114;SDS011;7658;51.456;7.622;2023-04-25T03:33:45;40.67;;;23.17;;
15114;SDS011;7658;51.456;7.622;2023-04-25T03:36:11;38.83;;;22.13;;
15114;SDS011;7658;51.456;7.622;2023-04-25T03:38:37;39.23;;;20.63;;
15114;SDS011;7658;51.456;7.622;2023-04-25T03:41:02;35.03;;;21.37;;
15114;SDS011;7658;51.456;7.622;2023-04-25T03:43:28;42.47;;;21.33;;
15114;SDS011;7658;51.456;7.622;2023-04-25T03:45:54;37.27;;;20.87;;
15114;SDS011;7658;51.456;7.622;2023-04-25T03:48:20;35.43;;;19.13;;
15114;SDS011;7658;51.456;7.622;2023-04-25T03:50:51;37.20;;;19.47;;
15114;SDS011;7658;51.456;7.622;2023-04-25T03:53:17;39.83;;;19.67;;
15114;SDS011;7658;51.456;7.622;2023-04-25T03:55:43;35.20;;;19.50;;
15114;SDS011;7658;51.456;7.622;2023-04-25T03:58:09;32.37;;;19.23;;
15114;SDS011;7658;51.456;7.622;2023-04-25T04:00:35;32.60;;;18.97;;
15114;SDS011;7658;51.456;7.622;2023-04-25T04:03:01;30.17;;;18.53;;
15114;SDS011;7658;51.456;7.622;2023-04-25T04:05:27;30.10;;;17.80;;
15114;SDS011;7658;51.456;7.622;2023-04-25T04:07:53;35.93;;;17.80;;
15114;SDS011;7658;51.456;7.622;2023-04-25T04:10:20;34.40;;;18.80;;
15114;SDS011;7658;51.456;7.622;2023-04-25T04:12:46;27.17;;;17.30;;
15114;SDS011;7658;51.456;7.622;2023-04-25T04:15:11;25.13;;;15.30;;
15114;SDS011;7658;51.456;7.622;2023-04-25T04:17:37;30.53;;;16.47;;
15114;SDS011;7658;51.456;7.622;2023-04-25T04:20:03;31.33;;;16.50;;
15114;SDS011;7658;51.456;7.622;2023-04-25T04:22:31;25.17;;;14.60;;
15114;SDS011;7658;51.456;7.622;2023-04-25T04:24:56;29.50;;;16.17;;
15114;SDS011;7658;51.456;7.622;2023-04-25T04:27:22;28.37;;;14.30;;
15114;SDS011;7658;51.456;7.622;2023-04-25T04:29:48;27.00;;;15.23;;
15114;SDS011;7658;51.456;7.622;2023-04-25T04:32:16;29.30;;;15.07;;
15114;SDS011;7658;51.456;7.622;2023-04-25T04:34:42;26.30;;;14.43;;
15114;SDS011;7658;51.456;7.622;2023-04-25T04:37:08;24.87;;;13.97;;
15114;SDS011;7658;51.456;7.622;2023-04-25T04:39:35;28.37;;;14.67;;
15114;SDS011;7658;51.456;7.622;2023-04-25T04:42:01;22.93;;;14.03;;
15114;SDS011;7658;51.456;7.622;2023-04-25T04:44:28;17.50;;;11.40;;
15114;SDS011;7658;51.456;7.622;2023-04-25T04:46:54;20.67;;;10.33;;
15114;SDS011;7658;51.456;7.622;2023-04-25T04:49:20;15.93;;;9.73;;
15114;SDS011;7658;51.456;7.622;2023-04-25T04:51:46;22.13;;;10.23;;
15114;SDS011;7658;51.456;7.622;2023-04-25T04:54:12;12.73;;;8.10;;
15114;SDS011;7658;51.456;7.622;2023-04-25T04:56:38;13.90;;;8.73;;
15114;SDS011;7658;51.456;7.622;2023-04-25T04:59:04;14.67;;;8.60;;
15114;SDS011;7658;51.456;7.622;2023-04-25T05:01:30;12.90;;;7.77;;
15114;SDS011;7658;51.456;7.622;2023-04-25T05:03:56;16.00;;;8.57;;
15114;SDS011;7658;51.456;7.622;2023-04-25T05:06:25;18.87;;;9.07;;
15114;SDS011;7658;51.456;7.622;2023-04-25T05:08:53;18.07;;;8.87;;
15114;SDS011;7658;51.456;7.622;2023-04-25T05:11:19;12.40;;;8.93;;
15114;SDS011;7658;51.456;7.622;2023-04-25T05:13:46;17.50;;;8.67;;
15114;SDS011;7658;51.456;7.622;2023-04-25T05:16:12;17.80;;;8.07;;
15114;SDS011;7658;51.456;7.622;2023-04-25T05:18:39;18.20;;;7.50;;
15114;SDS011;7658;51.456;7.622;2023-04-25T05:21:05;15.77;;;7.17;;
15114;SDS011;7658;51.456;7.622;2023-04-25T05:23:31;15.50;;;8.00;;
15114;SDS011;7658;51.456;7.622;2023-04-25T05:25:57;13.73;;;7.83;;
15114;SDS011;7658;51.456;7.622;2023-04-25T05:28:24;18.73;;;8.17;;
15114;SDS011;7658;51.456;7.622;2023-04-25T05:30:50;17.43;;;7.80;;
15114;SDS011;7658;51.456;7.622;2023-04-25T05:33:15;13.33;;;8.17;;
15114;SDS011;7658;51.456;7.622;2023-04-25T05:35:41;12.67;;;7.23;;
15114;SDS011;7658;51.456;7.622;2023-04-25T05:38:07;12.73;;;7.93;;
15114;SDS011;7658;51.456;7.622;2023-04-25T05:40:33;12.57;;;8.10;;
15114;SDS011;7658;51.456;7.622;2023-04-25T05:42:59;15.33;;;8.30;;
15114;SDS011;7658;51.456;7.622;2023-04-25T05:45:25;17.90;;;8.60;;
15114;SDS011;7658;51.456;7.622;2023-04-25T05:47:51;14.57;;;7.90;;
15114;SDS011;7658;51.456;7.622;2023-04-25T05:50:16;11.23;;;7.53;;
15114;SDS011;7658;51.456;7.622;2023-04-25T05:52:42;17.73;;;8.33;;
15114;SDS011;7658;51.456;7.622;2023-04-25T05:55:08;12.07;;;8.00;;
15114;SDS011;7658;51.456;7.622;2023-04-25T05:57:34;15.50;;;8.30;;
15114;SDS011;7658;51.456;7.622;2023-04-25T06:00:00;13.40;;;8.07;;
15114;SDS011;7658;51.456;7.622;2023-04-25T06:02:26;19.10;;;8.13;;
15114;SDS011;7658;51.456;7.622;2023-04-25T06:04:52;11.73;;;7.73;;
15114;SDS011;7658;51.456;7.622;2023-04-25T06:07:18;19.30;;;7.70;;
15114;SDS011;7658;51.456;7.622;2023-04-25T06:09:45;20.90;;;8.73;;
15114;SDS011;7658;51.456;7.622;2023-04-25T06:12:10;24.50;;;8.93;;
15114;SDS011;7658;51.456;7.622;2023-04-25T06:14:36;15.47;;;8.77;;
15114;SDS011;7658;51.456;7.622;2023-04-25T06:17:03;17.53;;;9.40;;
15114;SDS011;7658;51.456;7.622;2023-04-25T06:19:33;20.77;;;8.87;;
15114;SDS011;7658;51.456;7.622;2023-04-25T06:22:00;14.43;;;8.83;;
15114;SDS011;7658;51.456;7.622;2023-04-25T06:24:26;17.93;;;9.90;;
15114;SDS011;7658;51.456;7.622;2023-04-25T06:26:54;16.17;;;9.57;;
15114;SDS011;7658;51.456;7.622;2023-04-25T06:29:20;18.33;;;8.80;;
15114;SDS011;7658;51.456;7.622;2023-04-25T06:31:46;20.83;;;9.40;;
15114;SDS011;7658;51.456;7.622;2023-04-25T06:34:12;18.53;;;9.53;;
15114;SDS011;7658;51.456;7.622;2023-04-25T06:36:37;22.13;;;8.83;;
15114;SDS011;7658;51.456;7.622;2023-04-25T06:39:03;17.87;;;9.53;;
15114;SDS011;7658;51.456;7.622;2023-04-25T06:41:29;21.30;;;10.20;;
15114;SDS011;7658;51.456;7.622;2023-04-25T06:43:55;19.47;;;9.67;;
15114;SDS011;7658;51.456;7.622;2023-04-25T06:46:21;20.43;;;9.37;;
15114;SDS011;7658;51.456;7.622;2023-04-25T06:48:46;15.10;;;9.30;;
15114;SDS011;7658;51.456;7.622;2023-04-25T06:51:12;20.13;;;9.90;;
15114;SDS011;7658;51.456;7.622;2023-04-25T06:53:38;23.37;;;10.10;;
15114;SDS011;7658;51.456;7.622;2023-04-25T06:56:05;18.97;;;9.70;;
15114;SDS011;7658;51.456;7.622;2023-04-25T06:58:31;23.23;;;9.13;;
15114;SDS011;7658;51.456;7.622;2023-04-25T07:00:57;20.23;;;9.27;;
15114;SDS011;7658;51.456;7.622;2023-04-25T07:03:23;18.40;;;9.03;;
15114;SDS011;7658;51.456;7.622;2023-04-25T07:05:49;26.60;;;10.30;;
15114;SDS011;7658;51.456;7.622;2023-04-25T07:08:15;23.93;;;10.10;;
15114;SDS011;7658;51.456;7.622;2023-04-25T07:10:41;21.27;;;9.97;;
15114;SDS011;7658;51.456;7.622;2023-04-25T07:13:07;25.80;;;9.97;;
15114;SDS011;7658;51.456;7.622;2023-04-25T07:15:33;18.20;;;10.10;;
15114;SDS011;7658;51.456;7.622;2023-04-25T07:17:59;25.97;;;10.77;;
15114;SDS011;7658;51.456;7.622;2023-04-25T07:20:25;21.43;;;9.73;;
15114;SDS011;7658;51.456;7.622;2023-04-25T07:22:52;27.97;;;10.20;;
15114;SDS011;7658;51.456;7.622;2023-04-25T07:25:18;18.73;;;8.87;;
15114;SDS011;7658;51.456;7.622;2023-04-25T07:27:44;19.07;;;9.10;;
15114;SDS011;7658;51.456;7.622;2023-04-25T07:30:10;20.33;;;8.03;;
15114;SDS011;7658;51.456;7.622;2023-04-25T07:32:37;24.43;;;8.23;;
15114;SDS011;7658;51.456;7.622;2023-04-25T07:35:03;16.27;;;7.80;;
15114;SDS011;7658;51.456;7.622;2023-04-25T07:37:29;17.17;;;7.23;;
15114;SDS011;7658;51.456;7.622;2023-04-25T07:39:55;17.33;;;8.23;;
15114;SDS011;7658;51.456;7.622;2023-04-25T07:42:21;15.47;;;7.93;;
15114;SDS011;7658;51.456;7.622;2023-04-25T07:44:46;13.20;;;7.20;;
15114;SDS011;7658;51.456;7.622;2023-04-25T07:47:12;19.60;;;7.57;;
15114;SDS011;7658;51.456;7.622;2023-04-25T07:49:38;18.80;;;7.43;;
15114;SDS011;7658;51.456;7.622;2023-04-25T07:52:05;20.37;;;8.40;;
15114;SDS011;7658;51.456;7.622;2023-04-25T07:54:31;17.00;;;7.17;;
15114;SDS011;7658;51.456;7.622;2023-04-25T07:56:57;20.67;;;7.63;;
15114;SDS011;7658;51.456;7.622;2023-04-25T07:59:23;15.70;;;6.70;;
15114;SDS011;7658;51.456;7.622;2023-04-25T08:01:49;16.40;;;7.10;;
15114;SDS011;7658;51.456;7.622;2023-04-25T08:04:15;11.60;;;7.20;;
15114;SDS011;7658;51.456;7.622;2023-04-25T08:06:42;14.20;;;7.40;;
15114;SDS011;7658;51.456;7.622;2023-04-25T08:09:08;18.50;;;8.43;;
15114;SDS011;7658;51.456;7.622;2023-04-25T08:11:34;19.27;;;8.17;;
15114;SDS011;7658;51.456;7.622;2023-04-25T08:14:00;14.87;;;7.97;;
15114;SDS011;7658;51.456;7.622;2023-04-25T08:16:26;19.23;;;8.37;;
15114;SDS011;7658;51.456;7.622;2023-04-25T08:18:52;17.00;;;8.57;;
15114;SDS011;7658;51.456;7.622;2023-04-25T08:21:18;19.23;;;7.70;;
15114;SDS011;7658;51.456;7.622;2023-04-25T08:23:45;14.30;;;7.57;;
15114;SDS011;7658;51.456;7.622;2023-04-25T08:26:11;11.50;;;7.60;;
15114;SDS011;7658;51.456;7.622;2023-04-25T08:28:37;13.40;;;6.80;;
15114;SDS011;7658;51.456;7.622;2023-04-25T08:31:02;14.67;;;7.00;;
15114;SDS011;7658;51.456;7.622;2023-04-25T08:33:28;16.80;;;6.80;;
15114;SDS011;7658;51.456;7.622;2023-04-25T08:35:55;16.07;;;6.90;;
15114;SDS011;7658;51.456;7.622;2023-04-25T08:38:21;13.40;;;7.00;;
15114;SDS011;7658;51.456;7.622;2023-04-25T08:40:49;14.83;;;6.77;;
15114;SDS011;7658;51.456;7.622;2023-04-25T08:43:17;12.50;;;6.37;;
15114;SDS011;7658;51.456;7.622;2023-04-25T08:45:44;17.87;;;6.63;;
15114;SDS011;7658;51.456;7.622;2023-04-25T08:48:11;15.73;;;5.97;;
15114;SDS011;7658;51.456;7.622;2023-04-25T08:50:51;14.83;;;5.83;;
15114;SDS011;7658;51.456;7.622;2023-04-25T08:53:25;13.57;;;6.20;;
15114;SDS011;7658;51.456;7.622;2023-04-25T08:55:53;17.17;;;6.20;;
15114;SDS011;7658;51.456;7.622;2023-04-25T08:58:20;18.90;;;6.23;;
15114;SDS011;7658;51.456;7.622;2023-04-25T09:00:47;12.50;;;5.90;;
15114;SDS011;7658;51.456;7.622;2023-04-25T09:03:14;12.73;;;5.70;;
15114;SDS011;7658;51.456;7.622;2023-04-25T09:05:41;14.10;;;5.70;;
15114;SDS011;7658;51.456;7.622;2023-04-25T09:08:07;12.70;;;5.50;;
15114;SDS011;7658;51.456;7.622;2023-04-25T09:10:33;20.43;;;5.53;;
15114;SDS011;7658;51.456;7.622;2023-04-25T09:15:40;14.27;;;5.20;;
15114;SDS011;7658;51.456;7.622;2023-04-25T09:18:22;15.53;;;5.47;;
15114;SDS011;7658;51.456;7.622;2023-04-25T09:20:56;13.53;;;5.37;;
15114;SDS011;7658;51.456;7.622;2023-04-25T09:23:24;13.30;;;5.10;;
15114;SDS011;7658;51.456;7.622;2023-04-25T09:25:50;13.97;;;5.60;;
15114;SDS011;7658;51.456;7.622;2023-04-25T09:28:27;11.03;;;5.47;;
15114;SDS011;7658;51.456;7.622;2023-04-25T09:30:56;10.70;;;4.93;;
15114;SDS011;7658;51.456;7.622;2023-04-25T09:33:29;9.90;;;5.00;;
15114;SDS011;7658;51.456;7.622;2023-04-25T09:36:04;11.17;;;5.80;;
15114;SDS011;7658;51.456;7.622;2023-04-25T09:38:32;12.27;;;5.33;;
15114;SDS011;7658;51.456;7.622;2023-04-25T09:41:13;12.57;;;4.97;;
15114;SDS011;7658;51.456;7.622;2023-04-25T09:43:48;18.23;;;6.30;;
15114;SDS011;7658;51.456;7.622;2023-04-25T09:46:15;9.37;;;4.80;;
15114;SDS011;7658;51.456;7.622;2023-04-25T09:48:47;9.40;;;4.93;;
15114;SDS011;7658;51.456;7.622;2023-04-25T09:51:15;11.40;;;5.60;;
15114;SDS011;7658;51.456;7.622;2023-04-25T09:53:41;12.97;;;5.53;;
15114;SDS011;7658;51.456;7.622;2023-04-25T09:56:11;11.43;;;5.27;;
15114;SDS011;7658;51.456;7.622;2023-04-25T09:58:38;10.77;;;5.47;;
15114;SDS011;7658;51.456;7.622;2023-04-25T10:01:06;12.17;;;6.10;;
15114;SDS011;7658;51.456;7.622;2023-04-25T10:03:36;8.47;;;5.30;;
15114;SDS011;7658;51.456;7.622;2023-04-25T10:06:23;6.97;;;4.77;;
15114;SDS011;7658;51.456;7.622;2023-04-25T10:08:51;9.10;;;5.67;;
15114;SDS011;7658;51.456;7.622;2023-04-25T10:11:20;14.17;;;5.17;;
15114;SDS011;7658;51.456;7.622;2023-04-25T10:13:49;12.03;;;5.63;;
15114;SDS011;7658;51.456;7.622;2023-04-25T10:16:15;11.27;;;5.50;;
15114;SDS011;7658;51.456;7.622;2023-04-25T10:18:41;11.50;;;5.47;;
15114;SDS011;7658;51.456;7.622;2023-04-25T10:21:07;14.47;;;5.60;;
15114;SDS011;7658;51.456;7.622;2023-04-25T10:23:33;12.97;;;5.83;;
15114;SDS011;7658;51.456;7.622;2023-04-25T10:25:59;19.20;;;6.07;;
15114;SDS011;7658;51.456;7.622;2023-04-25T10:28:25;9.30;;;5.40;;
15114;SDS011;7658;51.456;7.622;2023-04-25T10:33:34;7.47;;;4.60;;
15114;SDS011;7658;51.456;7.622;2023-04-25T10:38:47;10.53;;;5.13;;
15114;SDS011;7658;51.456;7.622;2023-04-25T10:41:17;9.37;;;4.63;;
15114;SDS011;7658;51.456;7.622;2023-04-25T10:43:48;8.83;;;4.40;;
15114;SDS011;7658;51.456;7.622;2023-04-25T10:46:16;9.17;;;4.67;;
15114;SDS011;7658;51.456;7.622;2023-04-25T10:48:50;7.20;;;4.40;;
15114;SDS011;7658;51.456;7.622;2023-04-25T10:51:26;5.33;;;4.33;;
15114;SDS011;7658;51.456;7.622;2023-04-25T10:53:57;11.23;;;5.13;;
15114;SDS011;7658;51.456;7.622;2023-04-25T10:56:36;7.47;;;4.30;;
15114;SDS011;7658;51.456;7.622;2023-04-25T11:01:53;10.63;;;4.50;;
15114;SDS011;7658;51.456;7.622;2023-04-25T11:04:24;10.90;;;4.13;;
15114;SDS011;7658;51.456;7.622;2023-04-25T11:09:48;11.43;;;4.43;;
15114;SDS011;7658;51.456;7.622;2023-04-25T11:12:14;9.20;;;4.20;;
15114;SDS011;7658;51.456;7.622;2023-04-25T11:14:41;5.30;;;3.90;;
15114;SDS011;7658;51.456;7.622;2023-04-25T11:17:07;5.63;;;4.00;;
15114;SDS011;7658;51.456;7.622;2023-04-25T11:19:32;7.80;;;4.10;;
15114;SDS011;7658;51.456;7.622;2023-04-25T11:21:59;7.60;;;3.97;;
15114;SDS011;7658;51.456;7.622;2023-04-25T11:24:33;4.43;;;3.90;;
15114;SDS011;7658;51.456;7.622;2023-04-25T11:27:00;7.40;;;3.97;;
15114;SDS011;7658;51.456;7.622;2023-04-25T11:29:29;10.20;;;4.70;;
15114;SDS011;7658;51.456;7.622;2023-04-25T11:31:56;8.47;;;4.27;;
15114;SDS011;7658;51.456;7.622;2023-04-25T11:34:26;5.10;;;4.17;;
15114;SDS011;7658;51.456;7.622;2023-04-25T11:36:55;5.10;;;4.30;;
15114;SDS011;7658;51.456;7.622;2023-04-25T11:39:23;6.67;;;4.50;;
15114;SDS011;7658;51.456;7.622;2023-04-25T11:41:49;10.00;;;4.60;;
15114;SDS011;7658;51.456;7.622;2023-04-25T11:44:16;7.70;;;4.10;;
15114;SDS011;7658;51.456;7.622;2023-04-25T11:46:43;6.47;;;3.90;;
15114;SDS011;7658;51.456;7.622;2023-04-25T11:49:08;5.20;;;4.17;;
15114;SDS011;7658;51.456;7.622;2023-04-25T11:51:44;9.83;;;4.00;;
15114;SDS011;7658;51.456;7.622;2023-04-25T11:54:12;7.23;;;4.30;;
15114;SDS011;7658;51.456;7.622;2023-04-25T11:56:41;5.93;;;3.83;;
15114;SDS011;7658;51.456;7.622;2023-04-25T11:59:07;4.87;;;4.03;;
15114;SDS011;7658;51.456;7.622;2023-04-25T12:01:34;7.67;;;3.60;;
15114;SDS011;7658;51.456;7.622;2023-04-25T12:04:12;7.80;;;4.30;;
15114;SDS011;7658;51.456;7.622;2023-04-25T12:06:39;8.70;;;4.47;;
15114;SDS011;7658;51.456;7.622;2023-04-25T12:09:09;7.93;;;4.40;;
15114;SDS011;7658;51.456;7.622;2023-04-25T12:11:40;6.37;;;4.10;;
15114;SDS011;7658;51.456;7.622;2023-04-25T12:14:08;10.30;;;4.43;;
15114;SDS011;7658;51.456;7.622;2023-04-25T12:16:44;6.23;;;4.00;;
15114;SDS011;7658;51.456;7.622;2023-04-25T12:19:13;5.40;;;3.60;;
15114;SDS011;7658;51.456;7.622;2023-04-25T12:21:40;4.20;;;3.80;;
15114;SDS011;7658;51.456;7.622;2023-04-25T12:24:10;4.70;;;3.60;;
15114;SDS011;7658;51.456;7.622;2023-04-25T12:26:51;3.50;;;3.30;;
15114;SDS011;7658;51.456;7.622;2023-04-25T12:29:31;8.97;;;3.70;;
15114;SDS011;7658;51.456;7.622;2023-04-25T12:31:58;4.57;;;3.40;;
15114;SDS011;7658;51.456;7.622;2023-04-25T12:34:24;4.50;;;3.60;;
15114;SDS011;7658;51.456;7.622;2023-04-25T12:36:51;4.90;;;3.30;;
15114;SDS011;7658;51.456;7.622;2023-04-25T12:39:18;4.73;;;3.50;;
15114;SDS011;7658;51.456;7.622;2023-04-25T12:41:48;5.70;;;3.83;;
15114;SDS011;7658;51.456;7.622;2023-04-25T12:44:19;4.57;;;3.55;;
15114;SDS011;7658;51.456;7.622;2023-04-25T12:46:45;5.03;;;3.90;;
15114;SDS011;7658;51.456;7.622;2023-04-25T12:49:11;4.32;;;3.47;;
15114;SDS011;7658;51.456;7.622;2023-04-25T12:51:37;3.50;;;3.20;;
15114;SDS011;7658;51.456;7.622;2023-04-25T12:54:04;4.90;;;3.58;;
15114;SDS011;7658;51.456;7.622;2023-04-25T12:56:34;5.57;;;3.30;;
15114;SDS011;7658;51.456;7.622;2023-04-25T12:59:00;4.18;;;3.60;;
15114;SDS011;7658;51.456;7.622;2023-04-25T13:01:28;5.93;;;3.50;;
15114;SDS011;7658;51.456;7.622;2023-04-25T13:03:54;5.27;;;3.23;;
15114;SDS011;7658;51.456;7.622;2023-04-25T13:06:21;3.80;;;3.47;;
15114;SDS011;7658;51.456;7.622;2023-04-25T13:08:47;5.37;;;3.40;;
15114;SDS011;7658;51.456;7.622;2023-04-25T13:11:14;5.13;;;3.30;;
15114;SDS011;7658;51.456;7.622;2023-04-25T13:13:40;3.70;;;3.40;;
15114;SDS011;7658;51.456;7.622;2023-04-25T13:16:06;3.80;;;3.40;;
15114;SDS011;7658;51.456;7.622;2023-04-25T13:18:32;6.27;;;3.30;;
15114;SDS011;7658;51.456;7.622;2023-04-25T13:20:59;5.83;;;3.70;;
15114;SDS011;7658;51.456;7.622;2023-04-25T13:23:25;4.73;;;3.30;;
15114;SDS011;7658;51.456;7.622;2023-04-25T13:25:53;4.97;;;3.00;;
15114;SDS011;7658;51.456;7.622;2023-04-25T13:28:20;6.13;;;3.30;;
15114;SDS011;7658;51.456;7.622;2023-04-25T13:30:46;4.43;;;3.50;;
15114;SDS011;7658;51.456;7.622;2023-04-25T13:33:13;6.23;;;3.13;;
15114;SDS011;7658;51.456;7.622;2023-04-25T13:35:40;7.13;;;3.23;;
15114;SDS011;7658;51.456;7.622;2023-04-25T13:38:06;5.67;;;3.33;;
15114;SDS011;7658;51.456;7.622;2023-04-25T13:40:32;4.67;;;3.10;;
15114;SDS011;7658;51.456;7.622;2023-04-25T13:42:58;6.13;;;3.40;;
15114;SDS011;7658;51.456;7.622;2023-04-25T13:45:24;7.50;;;3.37;;
15114;SDS011;7658;51.456;7.622;2023-04-25T13:47:50;5.57;;;3.20;;
15114;SDS011;7658;51.456;7.622;2023-04-25T13:50:16;3.40;;;3.10;;
15114;SDS011;7658;51.456;7.622;2023-04-25T13:52:42;4.82;;;3.10;;
15114;SDS011;7658;51.456;7.622;2023-04-25T13:55:08;3.53;;;3.00;;
15114;SDS011;7658;51.456;7.622;2023-04-25T13:57:35;3.90;;;3.03;;
15114;SDS011;7658;51.456;7.622;2023-04-25T14:00:02;6.10;;;3.38;;
15114;SDS011;7658;51.456;7.622;2023-04-25T14:02:33;7.55;;;4.05;;
15114;SDS011;7658;51.456;7.622;2023-04-25T14:04:59;5.28;;;3.20;;
15114;SDS011;7658;51.456;7.622;2023-04-25T14:07:26;5.57;;;3.50;;
15114;SDS011;7658;51.456;7.622;2023-04-25T14:09:52;7.22;;;3.42;;
15114;SDS011;7658;51.456;7.622;2023-04-25T14:12:18;6.87;;;3.90;;
15114;SDS011;7658;51.456;7.622;2023-04-25T14:14:43;9.00;;;3.33;;
15114;SDS011;7658;51.456;7.622;2023-04-25T14:17:09;9.53;;;3.90;;
15114;SDS011;7658;51.456;7.622;2023-04-25T14:19:35;4.77;;;3.23;;
15114;SDS011;7658;51.456;7.622;2023-04-25T14:22:03;3.77;;;3.30;;
15114;SDS011;7658;51.456;7.622;2023-04-25T14:24:29;8.17;;;3.93;;
15114;SDS011;7658;51.456;7.622;2023-04-25T14:26:55;3.87;;;3.43;;
15114;SDS011;7658;51.456;7.622;2023-04-25T14:29:21;7.07;;;3.40;;
15114;SDS011;7658;51.456;7.622;2023-04-25T14:31:47;4.63;;;3.27;;
15114;SDS011;7658;51.456;7.622;2023-04-25T14:34:12;3.10;;;2.90;;
15114;SDS011;7658;51.456;7.622;2023-04-25T14:36:38;5.40;;;3.40;;
15114;SDS011;7658;51.456;7.622;2023-04-25T14:39:04;7.97;;;4.23;;
15114;SDS011;7658;51.456;7.622;2023-04-25T14:41:30;4.97;;;3.40;;
15114;SDS011;7658;51.456;7.622;2023-04-25T14:43:55;3.53;;;2.90;;
15114;SDS011;7658;51.456;7.622;2023-04-25T14:46:22;5.00;;;3.50;;
15114;SDS011;7658;51.456;7.622;2023-04-25T14:48:48;7.88;;;3.28;;
15114;SDS011;7658;51.456;7.622;2023-04-25T14:51:14;5.05;;;2.88;;
15114;SDS011;7658;51.456;7.622;2023-04-25T14:53:40;3.88;;;3.03;;
15114;SDS011;7658;51.456;7.622;2023-04-25T14:56:06;6.65;;;3.22;;
15114;SDS011;7658;51.456;7.622;2023-04-25T14:58:33;9.45;;;3.25;;
15114;SDS011;7658;51.456;7.622;2023-04-25T15:00:59;5.53;;;3.15;;